sensor_id;sensor_type;location;lat;lon;timestamp;temperature;humidity
61000;SHT31;46879;45.658;11.814;2023-04-25T00:01:25;19.92;69.99
61000;SHT31;46879;45.658;11.814;2023-04-25T00:06:27;19.89;69.85
61000;SHT31;46879;45.658;11.814;2023-04-25T00:11:27;19.89;69.83
61000;SHT31;46879;45.658;11.814;2023-04-25T00:16:29;19.89;69.76
61000;SHT31;46879;45.658;11.814;2023-04-25T00:21:30;19.92;69.91
61000;SHT31;46879;45.658;11.814;2023-04-25T00:26:35;19.89;69.98
61000;SHT31;46879;45.658;11.814;2023-04-25T00:31:36;19.88;70.19
61000;SHT31;46879;45.658;11.814;2023-04-25T00:36:36;19.91;70.24
61000;SHT31;46879;45.658;11.814;2023-04-25T00:41:37;19.89;70.23
61000;SHT31;46879;45.658;11.814;2023-04-25T00:46:39;19.89;70.00
61000;SHT31;46879;45.658;11.814;2023-04-25T00:51:40;19.92;70.33
61000;SHT31;46879;45.658;11.814;2023-04-25T00:56:40;19.89;70.30
61000;SHT31;46879;45.658;11.814;2023-04-25T01:01:42;19.89;70.46
61000;SHT31;46879;45.658;11.814;2023-04-25T01:06:43;19.89;70.33
61000;SHT31;46879;45.658;11.814;2023-04-25T01:11:43;19.89;70.37
61000;SHT31;46879;45.658;11.814;2023-04-25T01:16:44;19.91;70.35
61000;SHT31;46879;45.658;11.814;2023-04-25T01:21:45;19.91;70.57
61000;SHT31;46879;45.658;11.814;2023-04-25T01:26:45;19.92;70.67
61000;SHT31;46879;45.658;11.814;2023-04-25T01:31:51;19.89;70.56
61000;SHT31;46879;45.658;11.814;2023-04-25T01:36:53;19.91;70.68
61000;SHT31;46879;45.658;11.814;2023-04-25T01:41:54;19.91;70.66
61000;SHT31;46879;45.658;11.814;2023-04-25T01:47:15;19.91;70.64
61000;SHT31;46879;45.658;11.814;2023-04-25T01:52:15;19.91;70.57
61000;SHT31;46879;45.658;11.814;2023-04-25T01:57:16;19.89;70.71
61000;SHT31;46879;45.658;11.814;2023-04-25T02:02:17;19.91;70.67
61000;SHT31;46879;45.658;11.814;2023-04-25T02:07:17;19.91;70.68
61000;SHT31;46879;45.658;11.814;2023-04-25T02:12:18;19.91;70.79
61000;SHT31;46879;45.658;11.814;2023-04-25T02:17:18;19.91;70.77
61000;SHT31;46879;45.658;11.814;2023-04-25T02:22:19;19.88;70.63
61000;SHT31;46879;45.658;11.814;2023-04-25T02:27:19;19.89;70.68
61000;SHT31;46879;45.658;11.814;2023-04-25T02:32:20;19.91;70.57
61000;SHT31;46879;45.658;11.814;2023-04-25T02:37:20;19.92;70.70
61000;SHT31;46879;45.658;11.814;2023-04-25T02:42:21;19.91;70.73
61000;SHT31;46879;45.658;11.814;2023-04-25T02:47:22;19.89;70.59
61000;SHT31;46879;45.658;11.814;2023-04-25T02:52:22;19.88;70.74
61000;SHT31;46879;45.658;11.814;2023-04-25T02:57:23;19.89;70.78
61000;SHT31;46879;45.658;11.814;2023-04-25T03:02:23;19.88;70.76
61000;SHT31;46879;45.658;11.814;2023-04-25T03:07:24;19.88;70.82
61000;SHT31;46879;45.658;11.814;2023-04-25T03:12:25;19.88;70.60
61000;SHT31;46879;45.658;11.814;2023-04-25T03:17:25;19.89;70.74
61000;SHT31;46879;45.658;11.814;2023-04-25T03:22:26;19.87;70.86
61000;SHT31;46879;45.658;11.814;2023-04-25T03:27:26;19.87;70.70
61000;SHT31;46879;45.658;11.814;2023-04-25T03:32:27;19.85;70.61
61000;SHT31;46879;45.658;11.814;2023-04-25T03:37:28;19.88;70.86
61000;SHT31;46879;45.658;11.814;2023-04-25T03:42:28;19.87;70.92
61000;SHT31;46879;45.658;11.814;2023-04-25T03:47:29;19.85;70.82
61000;SHT31;46879;45.658;11.814;2023-04-25T03:52:29;19.85;71.06
61000;SHT31;46879;45.658;11.814;2023-04-25T03:57:30;19.85;70.90
61000;SHT31;46879;45.658;11.814;2023-04-25T04:02:31;19.85;70.93
61000;SHT31;46879;45.658;11.814;2023-04-25T04:07:31;19.84;71.10
61000;SHT31;46879;45.658;11.814;2023-04-25T04:12:33;19.85;70.82
61000;SHT31;46879;45.658;11.814;2023-04-25T04:17:34;19.82;70.93
61000;SHT31;46879;45.658;11.814;2023-04-25T04:22:34;19.84;71.07
61000;SHT31;46879;45.658;11.814;2023-04-25T04:27:36;19.84;70.86
61000;SHT31;46879;45.658;11.814;2023-04-25T04:32:37;19.85;70.94
61000;SHT31;46879;45.658;11.814;2023-04-25T04:37:37;19.84;70.96
61000;SHT31;46879;45.658;11.814;2023-04-25T04:42:38;19.85;71.03
61000;SHT31;46879;45.658;11.814;2023-04-25T04:47:39;19.84;71.09
61000;SHT31;46879;45.658;11.814;2023-04-25T04:52:40;19.84;70.98
61000;SHT31;46879;45.658;11.814;2023-04-25T04:57:40;19.81;71.03
61000;SHT31;46879;45.658;11.814;2023-04-25T05:02:41;19.82;71.01
61000;SHT31;46879;45.658;11.814;2023-04-25T05:07:41;19.84;71.20
61000;SHT31;46879;45.658;11.814;2023-04-25T05:12:42;19.82;71.22
61000;SHT31;46879;45.658;11.814;2023-04-25T05:17:43;19.85;71.06
61000;SHT31;46879;45.658;11.814;2023-04-25T05:22:43;19.87;71.26
61000;SHT31;46879;45.658;11.814;2023-04-25T05:27:44;19.87;71.29
61000;SHT31;46879;45.658;11.814;2023-04-25T05:32:44;19.85;71.26
61000;SHT31;46879;45.658;11.814;2023-04-25T05:37:47;19.87;71.34
61000;SHT31;46879;45.658;11.814;2023-04-25T05:42:47;19.87;71.24
61000;SHT31;46879;45.658;11.814;2023-04-25T05:47:48;19.85;71.29
61000;SHT31;46879;45.658;11.814;2023-04-25T05:52:50;19.87;71.40
61000;SHT31;46879;45.658;11.814;2023-04-25T05:57:50;19.87;71.42
61000;SHT31;46879;45.658;11.814;2023-04-25T06:02:51;19.87;71.39
61000;SHT31;46879;45.658;11.814;2023-04-25T06:07:51;19.87;71.35
61000;SHT31;46879;45.658;11.814;2023-04-25T06:12:52;19.88;71.40
61000;SHT31;46879;45.658;11.814;2023-04-25T06:17:52;19.88;71.35
61000;SHT31;46879;45.658;11.814;2023-04-25T06:22:53;19.88;71.34
61000;SHT31;46879;45.658;11.814;2023-04-25T06:27:54;19.88;70.65
61000;SHT31;46879;45.658;11.814;2023-04-25T06:32:54;19.92;70.84
61000;SHT31;46879;45.658;11.814;2023-04-25T06:37:55;19.91;70.81
61000;SHT31;46879;45.658;11.814;2023-04-25T06:42:56;19.88;70.66
61000;SHT31;46879;45.658;11.814;2023-04-25T06:47:56;19.87;70.54
61000;SHT31;46879;45.658;11.814;2023-04-25T06:52:57;19.87;70.52
61000;SHT31;46879;45.658;11.814;2023-04-25T06:57:57;19.87;70.25
61000;SHT31;46879;45.658;11.814;2023-04-25T07:02:58;19.84;70.23
61000;SHT31;46879;45.658;11.814;2023-04-25T07:07:58;19.81;70.26
61000;SHT31;46879;45.658;11.814;2023-04-25T07:12:59;19.81;70.22
61000;SHT31;46879;45.658;11.814;2023-04-25T07:18:00;19.81;70.21
61000;SHT31;46879;45.658;11.814;2023-04-25T07:23:01;19.81;70.10
61000;SHT31;46879;45.658;11.814;2023-04-25T07:28:01;19.82;70.09
61000;SHT31;46879;45.658;11.814;2023-04-25T07:33:02;19.81;69.90
61000;SHT31;46879;45.658;11.814;2023-04-25T07:38:03;19.78;69.89
61000;SHT31;46879;45.658;11.814;2023-04-25T07:43:03;19.78;69.85
61000;SHT31;46879;45.658;11.814;2023-04-25T07:48:04;19.78;69.85
61000;SHT31;46879;45.658;11.814;2023-04-25T07:53:05;19.78;69.94
61000;SHT31;46879;45.658;11.814;2023-04-25T07:58:06;19.77;69.92
61000;SHT31;46879;45.658;11.814;2023-04-25T08:03:09;19.78;70.16
61000;SHT31;46879;45.658;11.814;2023-04-25T08:08:10;19.81;70.40
61000;SHT31;46879;45.658;11.814;2023-04-25T08:13:10;19.81;71.25
61000;SHT31;46879;45.658;11.814;2023-04-25T08:18:11;19.79;71.63
61000;SHT31;46879;45.658;11.814;2023-04-25T08:23:12;19.85;71.34
61000;SHT31;46879;45.658;11.814;2023-04-25T08:28:14;19.88;71.30
61000;SHT31;46879;45.658;11.814;2023-04-25T08:33:15;19.91;71.08
61000;SHT31;46879;45.658;11.814;2023-04-25T08:38:16;19.95;70.94
61000;SHT31;46879;45.658;11.814;2023-04-25T08:43:19;19.98;71.46
61000;SHT31;46879;45.658;11.814;2023-04-25T08:48:21;19.98;71.54
61000;SHT31;46879;45.658;11.814;2023-04-25T08:53:26;19.96;71.47
61000;SHT31;46879;45.658;11.814;2023-04-25T08:58:28;19.98;71.29
61000;SHT31;46879;45.658;11.814;2023-04-25T09:03:29;19.84;67.15
61000;SHT31;46879;45.658;11.814;2023-04-25T09:08:30;19.64;64.44
61000;SHT31;46879;45.658;11.814;2023-04-25T09:13:30;19.50;63.51
61000;SHT31;46879;45.658;11.814;2023-04-25T09:18:34;19.54;66.25
61000;SHT31;46879;45.658;11.814;2023-04-25T09:23:47;19.59;65.10
61000;SHT31;46879;45.658;11.814;2023-04-25T09:28:48;19.67;65.43
61000;SHT31;46879;45.658;11.814;2023-04-25T09:33:48;19.57;62.43
61000;SHT31;46879;45.658;11.814;2023-04-25T09:38:49;19.45;62.38
61000;SHT31;46879;45.658;11.814;2023-04-25T09:43:51;19.39;61.95
61000;SHT31;46879;45.658;11.814;2023-04-25T09:48:51;19.33;61.50
61000;SHT31;46879;45.658;11.814;2023-04-25T09:53:54;19.29;60.98
61000;SHT31;46879;45.658;11.814;2023-04-25T09:58:54;19.29;60.92
61000;SHT31;46879;45.658;11.814;2023-04-25T10:03:56;19.23;60.74
61000;SHT31;46879;45.658;11.814;2023-04-25T10:08:58;19.16;60.58
61000;SHT31;46879;45.658;11.814;2023-04-25T10:14:00;19.06;60.59
61000;SHT31;46879;45.658;11.814;2023-04-25T10:19:01;19.04;60.71
61000;SHT31;46879;45.658;11.814;2023-04-25T10:24:03;18.98;61.01
61000;SHT31;46879;45.658;11.814;2023-04-25T10:29:04;18.95;61.55
61000;SHT31;46879;45.658;11.814;2023-04-25T10:34:04;18.91;60.92
61000;SHT31;46879;45.658;11.814;2023-04-25T10:39:06;18.81;59.96
61000;SHT31;46879;45.658;11.814;2023-04-25T10:44:09;18.83;59.77
61000;SHT31;46879;45.658;11.814;2023-04-25T10:49:09;18.77;59.76
61000;SHT31;46879;45.658;11.814;2023-04-25T10:54:11;18.74;59.57
61000;SHT31;46879;45.658;11.814;2023-04-25T10:59:14;18.84;61.97
61000;SHT31;46879;45.658;11.814;2023-04-25T11:04:28;18.83;61.80
61000;SHT31;46879;45.658;11.814;2023-04-25T11:09:29;19.08;62.90
61000;SHT31;46879;45.658;11.814;2023-04-25T11:14:30;18.70;61.18
61000;SHT31;46879;45.658;11.814;2023-04-25T11:19:31;18.34;60.81
61000;SHT31;46879;45.658;11.814;2023-04-25T11:24:35;18.22;60.83
61000;SHT31;46879;45.658;11.814;2023-04-25T11:29:36;18.12;61.03
61000;SHT31;46879;45.658;11.814;2023-04-25T11:34:36;18.05;61.56
61000;SHT31;46879;45.658;11.814;2023-04-25T11:39:37;18.01;60.67
61000;SHT31;46879;45.658;11.814;2023-04-25T11:44:39;17.87;60.46
61000;SHT31;46879;45.658;11.814;2023-04-25T11:49:40;18.01;60.28
61000;SHT31;46879;45.658;11.814;2023-04-25T11:54:44;17.88;59.26
61000;SHT31;46879;45.658;11.814;2023-04-25T11:59:45;17.77;59.12
61000;SHT31;46879;45.658;11.814;2023-04-25T12:04:45;17.71;59.35
61000;SHT31;46879;45.658;11.814;2023-04-25T12:09:51;17.84;59.20
61000;SHT31;46879;45.658;11.814;2023-04-25T12:14:53;17.74;58.09
61000;SHT31;46879;45.658;11.814;2023-04-25T12:19:55;17.71;58.89
61000;SHT31;46879;45.658;11.814;2023-04-25T12:24:56;17.51;58.47
61000;SHT31;46879;45.658;11.814;2023-04-25T12:29:58;17.60;58.25
61000;SHT31;46879;45.658;11.814;2023-04-25T12:34:59;17.71;58.22
61000;SHT31;46879;45.658;11.814;2023-04-25T12:40:00;17.71;57.57
61000;SHT31;46879;45.658;11.814;2023-04-25T12:45:01;17.73;56.98
61000;SHT31;46879;45.658;11.814;2023-04-25T12:50:01;17.73;57.10
61000;SHT31;46879;45.658;11.814;2023-04-25T12:55:02;17.75;57.91
61000;SHT31;46879;45.658;11.814;2023-04-25T13:00:04;17.59;58.78
61000;SHT31;46879;45.658;11.814;2023-04-25T13:05:07;17.67;58.71
61000;SHT31;46879;45.658;11.814;2023-04-25T13:10:09;17.49;60.09
61000;SHT31;46879;45.658;11.814;2023-04-25T13:15:10;17.49;60.56
61000;SHT31;46879;45.658;11.814;2023-04-25T13:20:11;17.50;61.05
61000;SHT31;46879;45.658;11.814;2023-04-25T13:25:12;17.67;59.70
61000;SHT31;46879;45.658;11.814;2023-04-25T13:30:12;17.85;59.41
61000;SHT31;46879;45.658;11.814;2023-04-25T13:35:13;18.02;61.52
61000;SHT31;46879;45.658;11.814;2023-04-25T13:40:14;18.19;62.60
61000;SHT31;46879;45.658;11.814;2023-04-25T13:45:15;18.28;62.86
61000;SHT31;46879;45.658;11.814;2023-04-25T13:50:15;18.44;66.59
61000;SHT31;46879;45.658;11.814;2023-04-25T13:55:16;18.59;67.79
61000;SHT31;46879;45.658;11.814;2023-04-25T14:00:17;18.51;66.65
61000;SHT31;46879;45.658;11.814;2023-04-25T14:05:19;18.54;67.61
61000;SHT31;46879;45.658;11.814;2023-04-25T14:10:19;18.02;60.16
61000;SHT31;46879;45.658;11.814;2023-04-25T14:15:20;18.12;60.49
61000;SHT31;46879;45.658;11.814;2023-04-25T14:20:20;17.85;58.97
61000;SHT31;46879;45.658;11.814;2023-04-25T14:25:22;17.71;58.11
61000;SHT31;46879;45.658;11.814;2023-04-25T14:30:23;17.68;58.61
61000;SHT31;46879;45.658;11.814;2023-04-25T14:35:23;17.77;58.38
61000;SHT31;46879;45.658;11.814;2023-04-25T14:40:26;17.79;57.63
61000;SHT31;46879;45.658;11.814;2023-04-25T14:45:26;17.67;58.00
61000;SHT31;46879;45.658;11.814;2023-04-25T14:50:27;17.63;57.58
61000;SHT31;46879;45.658;11.814;2023-04-25T14:55:28;17.57;57.76
61000;SHT31;46879;45.658;11.814;2023-04-25T15:00:28;17.60;57.98
61000;SHT31;46879;45.658;11.814;2023-04-25T15:05:30;17.60;58.15
61000;SHT31;46879;45.658;11.814;2023-04-25T15:10:31;17.29;59.34
61000;SHT31;46879;45.658;11.814;2023-04-25T15:15:31;17.16;60.13
61000;SHT31;46879;45.658;11.814;2023-04-25T15:20:32;17.25;59.23
61000;SHT31;46879;45.658;11.814;2023-04-25T15:25:34;17.54;64.78
61000;SHT31;46879;45.658;11.814;2023-04-25T15:30:35;17.99;66.55
61000;SHT31;46879;45.658;11.814;2023-04-25T15:35:35;18.17;67.09
61000;SHT31;46879;45.658;11.814;2023-04-25T15:40:36;18.23;67.22
61000;SHT31;46879;45.658;11.814;2023-04-25T15:45:37;18.30;67.20
61000;SHT31;46879;45.658;11.814;2023-04-25T15:50:37;18.36;67.20
61000;SHT31;46879;45.658;11.814;2023-04-25T15:55:38;18.40;67.19
61000;SHT31;46879;45.658;11.814;2023-04-25T16:00:39;18.44;67.21
61000;SHT31;46879;45.658;11.814;2023-04-25T16:06:00;18.51;67.01
61000;SHT31;46879;45.658;11.814;2023-04-25T16:11:01;18.56;67.20
61000;SHT31;46879;45.658;11.814;2023-04-25T16:16:02;18.61;67.25
61000;SHT31;46879;45.658;11.814;2023-04-25T16:21:03;18.68;67.42
61000;SHT31;46879;45.658;11.814;2023-04-25T16:26:03;18.74;67.24
61000;SHT31;46879;45.658;11.814;2023-04-25T16:31:04;18.78;67.04
61000;SHT31;46879;45.658;11.814;2023-04-25T16:36:06;18.79;66.91
61000;SHT31;46879;45.658;11.814;2023-04-25T16:41:07;18.85;66.71
61000;SHT31;46879;45.658;11.814;2023-04-25T16:46:07;18.88;66.49
61000;SHT31;46879;45.658;11.814;2023-04-25T16:51:08;18.91;66.40
61000;SHT31;46879;45.658;11.814;2023-04-25T16:56:09;18.94;66.17
61000;SHT31;46879;45.658;11.814;2023-04-25T17:01:10;18.94;66.22
61000;SHT31;46879;45.658;11.814;2023-04-25T17:06:11;18.92;66.16
61000;SHT31;46879;45.658;11.814;2023-04-25T17:11:12;18.96;66.08
61000;SHT31;46879;45.658;11.814;2023-04-25T17:16:12;18.98;65.93
61000;SHT31;46879;45.658;11.814;2023-04-25T17:21:16;19.01;65.83
61000;SHT31;46879;45.658;11.814;2023-04-25T17:26:17;19.09;66.90
61000;SHT31;46879;45.658;11.814;2023-04-25T17:31:18;19.14;67.23
61000;SHT31;46879;45.658;11.814;2023-04-25T17:36:18;19.18;66.88
61000;SHT31;46879;45.658;11.814;2023-04-25T17:41:19;19.16;66.77
61000;SHT31;46879;45.658;11.814;2023-04-25T17:46:20;19.12;66.56
61000;SHT31;46879;45.658;11.814;2023-04-25T17:51:20;19.12;66.39
61000;SHT31;46879;45.658;11.814;2023-04-25T17:56:21;19.11;66.23
61000;SHT31;46879;45.658;11.814;2023-04-25T18:01:22;19.12;66.05
61000;SHT31;46879;45.658;11.814;2023-04-25T18:06:22;19.14;66.11
61000;SHT31;46879;45.658;11.814;2023-04-25T18:11:23;19.12;66.33
61000;SHT31;46879;45.658;11.814;2023-04-25T18:16:24;19.15;66.73
61000;SHT31;46879;45.658;11.814;2023-04-25T18:21:24;19.12;67.03
61000;SHT31;46879;45.658;11.814;2023-04-25T18:26:25;19.16;67.20
61000;SHT31;46879;45.658;11.814;2023-04-25T18:31:26;19.18;67.29
61000;SHT31;46879;45.658;11.814;2023-04-25T18:36:27;19.16;67.41
61000;SHT31;46879;45.658;11.814;2023-04-25T18:41:28;19.15;67.49
61000;SHT31;46879;45.658;11.814;2023-04-25T18:46:30;19.19;67.50
61000;SHT31;46879;45.658;11.814;2023-04-25T18:51:31;19.16;67.47
61000;SHT31;46879;45.658;11.814;2023-04-25T18:56:31;19.15;67.47
61000;SHT31;46879;45.658;11.814;2023-04-25T19:01:32;19.18;67.45
61000;SHT31;46879;45.658;11.814;2023-04-25T19:06:33;19.16;67.44
61000;SHT31;46879;45.658;11.814;2023-04-25T19:11:34;19.18;67.38
61000;SHT31;46879;45.658;11.814;2023-04-25T19:16:35;19.14;67.32
61000;SHT31;46879;45.658;11.814;2023-04-25T19:21:39;19.16;67.26
61000;SHT31;46879;45.658;11.814;2023-04-25T19:26:41;19.16;67.23
61000;SHT31;46879;45.658;11.814;2023-04-25T19:31:43;19.16;67.14
61000;SHT31;46879;45.658;11.814;2023-04-25T19:36:44;19.15;67.04
61000;SHT31;46879;45.658;11.814;2023-04-25T19:41:44;19.16;67.00
61000;SHT31;46879;45.658;11.814;2023-04-25T19:46:45;19.15;66.95
61000;SHT31;46879;45.658;11.814;2023-04-25T19:51:48;19.15;66.93
61000;SHT31;46879;45.658;11.814;2023-04-25T19:56:48;19.16;66.93
61000;SHT31;46879;45.658;11.814;2023-04-25T20:01:49;19.14;66.93
61000;SHT31;46879;45.658;11.814;2023-04-25T20:06:49;19.15;66.90
61000;SHT31;46879;45.658;11.814;2023-04-25T20:11:50;19.16;66.90
61000;SHT31;46879;45.658;11.814;2023-04-25T20:16:51;19.14;66.88
61000;SHT31;46879;45.658;11.814;2023-04-25T20:21:53;19.15;66.88
61000;SHT31;46879;45.658;11.814;2023-04-25T20:26:54;19.18;66.87
61000;SHT31;46879;45.658;11.814;2023-04-25T20:31:55;19.16;66.83
61000;SHT31;46879;45.658;11.814;2023-04-25T20:36:56;19.15;66.77
61000;SHT31;46879;45.658;11.814;2023-04-25T20:41:57;19.15;66.77
61000;SHT31;46879;45.658;11.814;2023-04-25T20:46:57;19.16;66.78
61000;SHT31;46879;45.658;11.814;2023-04-25T20:51:58;19.18;67.05
61000;SHT31;46879;45.658;11.814;2023-04-25T20:56:59;19.15;67.19
61000;SHT31;46879;45.658;11.814;2023-04-25T21:02:00;19.15;67.37
61000;SHT31;46879;45.658;11.814;2023-04-25T21:07:02;19.15;67.67
61000;SHT31;46879;45.658;11.814;2023-04-25T21:12:03;19.15;67.71
61000;SHT31;46879;45.658;11.814;2023-04-25T21:17:04;19.14;67.79
61000;SHT31;46879;45.658;11.814;2023-04-25T21:22:04;19.15;68.19
61000;SHT31;46879;45.658;11.814;2023-04-25T21:27:06;19.12;68.00
61000;SHT31;46879;45.658;11.814;2023-04-25T21:32:06;19.15;68.00
61000;SHT31;46879;45.658;11.814;2023-04-25T21:37:08;19.14;68.05
61000;SHT31;46879;45.658;11.814;2023-04-25T21:42:08;19.14;68.13
61000;SHT31;46879;45.658;11.814;2023-04-25T21:47:10;19.14;68.36
61000;SHT31;46879;45.658;11.814;2023-04-25T21:52:10;19.15;68.25
61000;SHT31;46879;45.658;11.814;2023-04-25T21:57:11;19.15;68.34
61000;SHT31;46879;45.658;11.814;2023-04-25T22:02:12;19.14;68.45
61000;SHT31;46879;45.658;11.814;2023-04-25T22:07:13;19.18;68.43
61000;SHT31;46879;45.658;11.814;2023-04-25T22:12:14;19.14;68.46
61000;SHT31;46879;45.658;11.814;2023-04-25T22:17:15;19.16;68.50
61000;SHT31;46879;45.658;11.814;2023-04-25T22:22:18;19.15;68.50
61000;SHT31;46879;45.658;11.814;2023-04-25T22:27:19;19.14;68.53
61000;SHT31;46879;45.658;11.814;2023-04-25T22:32:19;19.11;68.51
61000;SHT31;46879;45.658;11.814;2023-04-25T22:37:20;19.14;68.76
61000;SHT31;46879;45.658;11.814;2023-04-25T22:42:21;19.15;68.73
61000;SHT31;46879;45.658;11.814;2023-04-25T22:47:21;19.15;68.73
61000;SHT31;46879;45.658;11.814;2023-04-25T22:52:23;19.15;68.62
61000;SHT31;46879;45.658;11.814;2023-04-25T22:57:24;19.15;68.33
61000;SHT31;46879;45.658;11.814;2023-04-25T23:02:25;19.14;68.52
61000;SHT31;46879;45.658;11.814;2023-04-25T23:07:26;19.15;68.61
61000;SHT31;46879;45.658;11.814;2023-04-25T23:12:28;19.14;68.65
61000;SHT31;46879;45.658;11.814;2023-04-25T23:17:28;19.14;68.79
61000;SHT31;46879;45.658;11.814;2023-04-25T23:22:29;19.16;68.68
61000;SHT31;46879;45.658;11.814;2023-04-25T23:27:30;19.14;68.69
61000;SHT31;46879;45.658;11.814;2023-04-25T23:32:30;19.14;69.05
61000;SHT31;46879;45.658;11.814;2023-04-25T23:37:36;19.15;69.15
61000;SHT31;46879;45.658;11.814;2023-04-25T23:42:38;19.16;69.12
61000;SHT31;46879;45.658;11.814;2023-04-25T23:47:39;19.16;69.07
61000;SHT31;46879;45.658;11.814;2023-04-25T23:52:39;19.15;69.15
61000;SHT31;46879;45.658;11.814;2023-04-25T23:57:40;19.15;69.28
